Cape Tainaro — 9HA4463 — position and weather

sailwx.info

Track history (hours):
 
Tides and Currents Weather Stations Pressure Air Temp Water Temp Dewpoint Dewpoint Depression Visibility Wind Speed Wind Dir Waves Ship Positions

Cape Tainaro

Last reported at 2017-Sep-21 13:17 UTC. Time now 2017-Sep-22 20:51 UTC.
Position N 29°25' E 122°24'.

Length 330 m; draft 10.4 m.

Type: Cargo ship. MMSI: 249982000.

Date/timePositionNaut miles runAvg speedWind from/ knotsBaromVisibWave heightAir tempDewpointWater temp
2017-Sep-21 13:17N 29°25' E 122°24'519.5
2017-Sep-21 13:00N 29°31' E 122°25'918.6
2017-Sep-21 12:30N 29°40' E 122°25'715.0
2017-Sep-21 12:00N 29°45' E 122°19'5 9.4
2017-Sep-21 11:30N 29°48' E 122°15'612.0
2017-Sep-21 11:00N 29°53' E 122°11'510.7
2017-Sep-21 10:30N 29°55' E 122°05'2 4.0
2017-Sep-21 10:00N 29°53' E 122°03'0 0.0
2017-Sep-21 09:27N 29°53' E 122°03'0 0.1
2017-Sep-21 08:50N 29°53' E 122°03'0 0.2
2017-Sep-21 08:27N 29°53' E 122°03'0 0.0
2017-Sep-21 07:26N 29°53' E 122°03'0 0.0
2017-Sep-21 06:44N 29°53' E 122°03'0 0.0
2017-Sep-21 06:26N 29°53' E 122°03'0 0.0
2017-Sep-21 05:56N 29°53' E 122°03'0 0.0
2017-Sep-21 05:26N 29°53' E 122°03'0 0.0
2017-Sep-21 04:56N 29°53' E 122°03'0 0.1
2017-Sep-21 04:26N 29°53' E 122°03'0 0.0
2017-Sep-21 03:14N 29°53' E 122°03'0 0.0
2017-Sep-21 02:56N 29°53' E 122°03'0 0.1
2017-Sep-21 02:26N 29°53' E 122°03'0 0.0
2017-Sep-21 01:56N 29°53' E 122°03'0 0.1
2017-Sep-21 01:14N 29°53' E 122°03'0 0.0
2017-Sep-21 00:14N 29°53' E 122°03'0 0.2
2017-Sep-20 23:56N 29°53' E 122°03'0 0.1
2017-Sep-20 23:26N 29°53' E 122°03'0 0.1
2017-Sep-20 22:44N 29°53' E 122°03'0 0.2
2017-Sep-20 22:26N 29°53' E 122°03'0 0.0
2017-Sep-20 21:56N 29°53' E 122°03'0 0.1
2017-Sep-20 21:08N 29°53' E 122°03'0 0.3
2017-Sep-20 20:57N 29°53' E 122°03'0 0.0
2017-Sep-20 19:32N 29°53' E 122°03'0 0.0
2017-Sep-20 19:02N 29°53' E 122°03'0 0.0
2017-Sep-20 18:57N 29°53' E 122°03'0 0.0
2017-Sep-20 18:27N 29°53' E 122°03'0 0.1
2017-Sep-20 18:00N 29°53' E 122°03'1 1.6
2017-Sep-20 17:29N 29°54' E 122°04'2 5.2
2017-Sep-20 17:00N 29°55' E 122°06'510.0
2017-Sep-20 16:30N 29°53' E 122°11'611.7
2017-Sep-20 16:00N 29°48' E 122°15'5 9.6
2017-Sep-20 15:26N 29°45' E 122°20'4 8.4
2017-Sep-20 15:00N 29°44' E 122°24'9 8.8
2017-Sep-20 14:00N 29°47' E 122°34'4 8.5
2017-Sep-20 13:30N 29°49' E 122°38'3 6.4
2017-Sep-20 13:01N 29°49' E 122°42'1 1.7
2017-Sep-20 12:30N 29°48' E 122°43'1 2.0
2017-Sep-20 11:47N 29°47' E 122°41'0 0.5
2017-Sep-20 11:31N 29°47' E 122°41'1 1.3
2017-Sep-20 10:54N 29°48' E 122°42'3 6.0
2017-Sep-20 10:29N 29°50' E 122°41'2 5.3
2017-Sep-20 10:01N 29°52' E 122°42'0 0.4
2017-Sep-20 09:15N 29°52' E 122°43'0 0.0
2017-Sep-20 08:57N 29°52' E 122°43'0 0.0
2017-Sep-20 08:20N 29°52' E 122°43'0 0.1
2017-Sep-20 07:50N 29°52' E 122°43'0 0.1
2017-Sep-20 06:50N 29°52' E 122°43'0 0.0
2017-Sep-20 06:26N 29°52' E 122°43'0 0.0
2017-Sep-20 05:50N 29°52' E 122°43'0 0.2
2017-Sep-20 05:20N 29°52' E 122°43'0 0.1
2017-Sep-20 04:56N 29°52' E 122°43'0 0.0
2017-Sep-20 04:27N 29°52' E 122°43'0 0.0
2017-Sep-20 03:56N 29°52' E 122°43'0 0.1
2017-Sep-20 03:26N 29°52' E 122°43'0 0.0
2017-Sep-20 01:51N 29°52' E 122°43'0 0.0
2017-Sep-20 01:20N 29°52' E 122°43'0 0.1
2017-Sep-19 23:08N 29°52' E 122°43'0 0.3
2017-Sep-19 22:56N 29°52' E 122°43'0 0.1
2017-Sep-19 21:08N 29°52' E 122°43'0 0.0
2017-Sep-19 20:57N 29°52' E 122°43'0 0.0
2017-Sep-19 19:27N 29°52' E 122°43'0 0.1
2017-Sep-19 18:50N 29°52' E 122°43'0 0.1
2017-Sep-19 18:08N 29°52' E 122°43'0 0.0
2017-Sep-19 17:44N 29°52' E 122°43'0 0.0
2017-Sep-19 17:08N 29°52' E 122°43'0 0.1
2017-Sep-19 16:44N 29°52' E 122°43'0 0.1
2017-Sep-19 16:27N 29°52' E 122°43'0 0.1
2017-Sep-19 15:56N 29°52' E 122°43'0 0.0
2017-Sep-19 14:39N 29°52' E 122°43'0 0.0
2017-Sep-19 14:20N 29°52' E 122°43'0 0.0
2017-Sep-19 13:14N 29°52' E 122°43'0 0.0
2017-Sep-19 09:26N 29°52' E 122°43'0 0.0
2017-Sep-19 07:51N 29°52' E 122°43'0 0.0
2017-Sep-19 06:27N 29°52' E 122°43'0 0.1
2017-Sep-19 04:02N 29°52' E 122°43'0 0.0
2017-Sep-19 03:45N 29°52' E 122°43'0 0.1
2017-Sep-19 02:39N 29°52' E 122°43'0 0.2
2017-Sep-19 02:21N 29°52' E 122°43'0 0.1
2017-Sep-19 01:50N 29°52' E 122°43'0 0.0
2017-Sep-19 00:51N 29°52' E 122°43'0 0.0
2017-Sep-19 00:20N 29°52' E 122°43'0 0.0
2017-Sep-18 23:56N 29°52' E 122°43'0 0.1
2017-Sep-18 22:02N 29°52' E 122°43'0 0.0
2017-Sep-18 19:57N 29°52' E 122°43'0 0.1
2017-Sep-18 19:24N 29°52' E 122°43'0 0.0
2017-Sep-18 18:32N 29°52' E 122°43'0 0.0
2017-Sep-18 18:20N 29°52' E 122°43'0 0.0
2017-Sep-18 17:56N 29°52' E 122°43'0 0.1
2017-Sep-18 17:26N 29°52' E 122°43'0 0.1
2017-Sep-18 16:20N 29°52' E 122°43'0 0.0
2017-Sep-18 15:51N 29°52' E 122°43'0 0.0
2017-Sep-18 13:30N 29°52' E 122°43'4 6.1
2017-Sep-18 12:52N 29°55' E 122°45'1510.7
2017-Sep-18 11:26N 30°11' E 122°47'510.8
2017-Sep-18 11:00N 30°14' E 122°44'611.0
2017-Sep-18 10:28N 30°19' E 122°40'612.0
2017-Sep-18 09:58N 30°25' E 122°37'511.4
2017-Sep-18 09:29N 30°28' E 122°32'612.8
2017-Sep-18 08:58N 30°31' E 122°25'612.8
2017-Sep-18 08:30N 30°33' E 122°19'713.3
2017-Sep-18 08:00N 30°34' E 122°11'6 0.5
2017-Sep-17 19:44N 30°37' E 122°04'0 0.0
2017-Sep-17 19:26N 30°37' E 122°04'0 0.1
2017-Sep-17 18:56N 30°37' E 122°05'0 0.1
2017-Sep-17 18:23N 30°37' E 122°04'0 0.0
2017-Sep-17 17:47N 30°37' E 122°04'0 0.1
2017-Sep-17 17:20N 30°37' E 122°05'0 0.0
2017-Sep-17 16:59N 30°37' E 122°05'0 0.1
2017-Sep-17 16:14N 30°37' E 122°04'0 0.0
2017-Sep-17 15:47N 30°37' E 122°04'11 7.8
2017-Sep-17 14:20N 30°33' E 122°17'3 7.5
2017-Sep-17 13:59N 30°33' E 122°20'4 6.7
2017-Sep-17 13:27N 30°33' E 122°24'13 4.4
2017-Sep-17 10:28N 30°30' E 122°39'4 8.6
2017-Sep-17 09:59N 30°29' E 122°43'5 9.8
2017-Sep-17 09:30N 30°27' E 122°48'5 9.8
2017-Sep-17 08:58N 30°22' E 122°48'4 9.1
2017-Sep-17 08:30N 30°17' E 122°48'5 8.9
2017-Sep-17 07:56N 30°12' E 122°48'8 9.0
2017-Sep-17 07:01N 30°04' E 122°49'5 9.2
2017-Sep-17 06:31N 29°60' E 122°50'010.9
2017-Sep-17 06:30N 29°59' E 122°50'711.4
2017-Sep-17 05:51N 29°52' E 122°52'4210.8
2017-Sep-17 01:58N 29°12' E 122°39'28210.7
2017-Sep-15 23:37N 25°04' E 120°07'211.9
2017-Sep-15 23:26N 25°02' E 120°05'1811.8
2017-Sep-15 21:55N 24°52' E 119°49'512.3
2017-Sep-15 21:30N 24°49' E 119°45'612.4
2017-Sep-15 21:00N 24°45' E 119°40'1612.8
2017-Sep-15 19:44N 24°33' E 119°27'313.2
2017-Sep-15 19:30N 24°31' E 119°24'1213.4
2017-Sep-15 18:38N 24°24' E 119°14'213.4
2017-Sep-15 18:29N 24°23' E 119°12'4812.4
2017-Sep-15 14:36N 23°50' E 118°34'412.4
2017-Sep-15 14:16N 23°47' E 118°31'311.9
2017-Sep-15 14:00N 23°44' E 118°30'612.2
2017-Sep-15 13:31N 23°40' E 118°24'612.2
2017-Sep-15 13:00N 23°37' E 118°19'612.6
2017-Sep-15 12:30N 23°33' E 118°13'713.1
2017-Sep-15 11:59N 23°28' E 118°08'612.9
2017-Sep-15 11:31N 23°24' E 118°03'713.0
2017-Sep-15 11:00N 23°21' E 117°56'713.6
2017-Sep-15 10:30N 23°18' E 117°50'713.3
2017-Sep-15 10:00N 23°15' E 117°43'813.8
2017-Sep-15 09:26N 23°12' E 117°35'613.8
2017-Sep-15 09:00N 23°10' E 117°30'713.5
2017-Sep-15 08:30N 23°07' E 117°23'713.4
2017-Sep-15 08:00N 23°04' E 117°17'713.4
2017-Sep-15 07:30N 23°00' E 117°10'1512.7
2017-Sep-15 06:21N 22°52' E 116°57'412.6
2017-Sep-15 06:00N 22°49' E 116°53'712.2
2017-Sep-15 05:26N 22°47' E 116°46'612.2
2017-Sep-15 04:57N 22°45' E 116°40'13211.0
2017-Sep-14 16:59N 22°34' E 114°17'1 3.0
2017-Sep-14 16:30N 22°34' E 114°16'  
Track history (hours):
 
Tides and Currents Weather Stations Pressure Air Temp Water Temp Dewpoint Dewpoint Depression Visibility Wind Speed Wind Dir Waves Ship Positions

Cape Tainaro

Last reported at 2017-Sep-21 13:17 UTC. Time now 2017-Sep-22 20:51 UTC.
Position N 29°25' E 122°24'.

Length 330 m; draft 10.4 m.

Type: Cargo ship. MMSI: 249982000.

Date/timePositionNaut miles runAvg speedWind from/ knotsBaromVisibWave heightAir tempDewpointWater temp
2017-Sep-21 13:17N 29°25' E 122°24'519.5
2017-Sep-21 13:00N 29°31' E 122°25'918.6
2017-Sep-21 12:30N 29°40' E 122°25'715.0
2017-Sep-21 12:00N 29°45' E 122°19'5 9.4
2017-Sep-21 11:30N 29°48' E 122°15'612.0
2017-Sep-21 11:00N 29°53' E 122°11'510.7
2017-Sep-21 10:30N 29°55' E 122°05'2 4.0
2017-Sep-21 10:00N 29°53' E 122°03'0 0.0
2017-Sep-21 09:27N 29°53' E 122°03'0 0.1
2017-Sep-21 08:50N 29°53' E 122°03'0 0.2
2017-Sep-21 08:27N 29°53' E 122°03'0 0.0
2017-Sep-21 07:26N 29°53' E 122°03'0 0.0
2017-Sep-21 06:44N 29°53' E 122°03'0 0.0
2017-Sep-21 06:26N 29°53' E 122°03'0 0.0
2017-Sep-21 05:56N 29°53' E 122°03'0 0.0
2017-Sep-21 05:26N 29°53' E 122°03'0 0.0
2017-Sep-21 04:56N 29°53' E 122°03'0 0.1
2017-Sep-21 04:26N 29°53' E 122°03'0 0.0
2017-Sep-21 03:14N 29°53' E 122°03'0 0.0
2017-Sep-21 02:56N 29°53' E 122°03'0 0.1
2017-Sep-21 02:26N 29°53' E 122°03'0 0.0
2017-Sep-21 01:56N 29°53' E 122°03'0 0.1
2017-Sep-21 01:14N 29°53' E 122°03'0 0.0
2017-Sep-21 00:14N 29°53' E 122°03'0 0.2
2017-Sep-20 23:56N 29°53' E 122°03'0 0.1
2017-Sep-20 23:26N 29°53' E 122°03'0 0.1
2017-Sep-20 22:44N 29°53' E 122°03'0 0.2
2017-Sep-20 22:26N 29°53' E 122°03'0 0.0
2017-Sep-20 21:56N 29°53' E 122°03'0 0.1
2017-Sep-20 21:08N 29°53' E 122°03'0 0.3
2017-Sep-20 20:57N 29°53' E 122°03'0 0.0
2017-Sep-20 19:32N 29°53' E 122°03'0 0.0
2017-Sep-20 19:02N 29°53' E 122°03'0 0.0
2017-Sep-20 18:57N 29°53' E 122°03'0 0.0
2017-Sep-20 18:27N 29°53' E 122°03'0 0.1
2017-Sep-20 18:00N 29°53' E 122°03'1 1.6
2017-Sep-20 17:29N 29°54' E 122°04'2 5.2
2017-Sep-20 17:00N 29°55' E 122°06'510.0
2017-Sep-20 16:30N 29°53' E 122°11'611.7
2017-Sep-20 16:00N 29°48' E 122°15'5 9.6
2017-Sep-20 15:26N 29°45' E 122°20'4 8.4
2017-Sep-20 15:00N 29°44' E 122°24'9 8.8
2017-Sep-20 14:00N 29°47' E 122°34'4 8.5
2017-Sep-20 13:30N 29°49' E 122°38'3 6.4
2017-Sep-20 13:01N 29°49' E 122°42'1 1.7
2017-Sep-20 12:30N 29°48' E 122°43'1 2.0
2017-Sep-20 11:47N 29°47' E 122°41'0 0.5
2017-Sep-20 11:31N 29°47' E 122°41'1 1.3
2017-Sep-20 10:54N 29°48' E 122°42'3 6.0
2017-Sep-20 10:29N 29°50' E 122°41'2 5.3
2017-Sep-20 10:01N 29°52' E 122°42'0 0.4
2017-Sep-20 09:15N 29°52' E 122°43'0 0.0
2017-Sep-20 08:57N 29°52' E 122°43'0 0.0
2017-Sep-20 08:20N 29°52' E 122°43'0 0.1
2017-Sep-20 07:50N 29°52' E 122°43'0 0.1
2017-Sep-20 06:50N 29°52' E 122°43'0 0.0
2017-Sep-20 06:26N 29°52' E 122°43'0 0.0
2017-Sep-20 05:50N 29°52' E 122°43'0 0.2
2017-Sep-20 05:20N 29°52' E 122°43'0 0.1
2017-Sep-20 04:56N 29°52' E 122°43'0 0.0
2017-Sep-20 04:27N 29°52' E 122°43'0 0.0
2017-Sep-20 03:56N 29°52' E 122°43'0 0.1
2017-Sep-20 03:26N 29°52' E 122°43'0 0.0
2017-Sep-20 01:51N 29°52' E 122°43'0 0.0
2017-Sep-20 01:20N 29°52' E 122°43'0 0.1
2017-Sep-19 23:08N 29°52' E 122°43'0 0.3
2017-Sep-19 22:56N 29°52' E 122°43'0 0.1
2017-Sep-19 21:08N 29°52' E 122°43'0 0.0
2017-Sep-19 20:57N 29°52' E 122°43'0 0.0
2017-Sep-19 19:27N 29°52' E 122°43'0 0.1
2017-Sep-19 18:50N 29°52' E 122°43'0 0.1
2017-Sep-19 18:08N 29°52' E 122°43'0 0.0
2017-Sep-19 17:44N 29°52' E 122°43'0 0.0
2017-Sep-19 17:08N 29°52' E 122°43'0 0.1
2017-Sep-19 16:44N 29°52' E 122°43'0 0.1
2017-Sep-19 16:27N 29°52' E 122°43'0 0.1
2017-Sep-19 15:56N 29°52' E 122°43'0 0.0
2017-Sep-19 14:39N 29°52' E 122°43'0 0.0
2017-Sep-19 14:20N 29°52' E 122°43'0 0.0
2017-Sep-19 13:14N 29°52' E 122°43'0 0.0
2017-Sep-19 09:26N 29°52' E 122°43'0 0.0
2017-Sep-19 07:51N 29°52' E 122°43'0 0.0
2017-Sep-19 06:27N 29°52' E 122°43'0 0.1
2017-Sep-19 04:02N 29°52' E 122°43'0 0.0
2017-Sep-19 03:45N 29°52' E 122°43'0 0.1
2017-Sep-19 02:39N 29°52' E 122°43'0 0.2
2017-Sep-19 02:21N 29°52' E 122°43'0 0.1
2017-Sep-19 01:50N 29°52' E 122°43'0 0.0
2017-Sep-19 00:51N 29°52' E 122°43'0 0.0
2017-Sep-19 00:20N 29°52' E 122°43'0 0.0
2017-Sep-18 23:56N 29°52' E 122°43'0 0.1
2017-Sep-18 22:02N 29°52' E 122°43'0 0.0
2017-Sep-18 19:57N 29°52' E 122°43'0 0.1
2017-Sep-18 19:24N 29°52' E 122°43'0 0.0
2017-Sep-18 18:32N 29°52' E 122°43'0 0.0
2017-Sep-18 18:20N 29°52' E 122°43'0 0.0
2017-Sep-18 17:56N 29°52' E 122°43'0 0.1
2017-Sep-18 17:26N 29°52' E 122°43'0 0.1
2017-Sep-18 16:20N 29°52' E 122°43'0 0.0
2017-Sep-18 15:51N 29°52' E 122°43'0 0.0
2017-Sep-18 13:30N 29°52' E 122°43'4 6.1
2017-Sep-18 12:52N 29°55' E 122°45'1510.7
2017-Sep-18 11:26N 30°11' E 122°47'510.8
2017-Sep-18 11:00N 30°14' E 122°44'611.0
2017-Sep-18 10:28N 30°19' E 122°40'612.0
2017-Sep-18 09:58N 30°25' E 122°37'511.4
2017-Sep-18 09:29N 30°28' E 122°32'612.8
2017-Sep-18 08:58N 30°31' E 122°25'612.8
2017-Sep-18 08:30N 30°33' E 122°19'713.3
2017-Sep-18 08:00N 30°34' E 122°11'6 0.5
2017-Sep-17 19:44N 30°37' E 122°04'0 0.0
2017-Sep-17 19:26N 30°37' E 122°04'0 0.1
2017-Sep-17 18:56N 30°37' E 122°05'0 0.1
2017-Sep-17 18:23N 30°37' E 122°04'0 0.0
2017-Sep-17 17:47N 30°37' E 122°04'0 0.1
2017-Sep-17 17:20N 30°37' E 122°05'0 0.0
2017-Sep-17 16:59N 30°37' E 122°05'0 0.1
2017-Sep-17 16:14N 30°37' E 122°04'0 0.0
2017-Sep-17 15:47N 30°37' E 122°04'11 7.8
2017-Sep-17 14:20N 30°33' E 122°17'3 7.5
2017-Sep-17 13:59N 30°33' E 122°20'4 6.7
2017-Sep-17 13:27N 30°33' E 122°24'13 4.4
2017-Sep-17 10:28N 30°30' E 122°39'4 8.6
2017-Sep-17 09:59N 30°29' E 122°43'5 9.8
2017-Sep-17 09:30N 30°27' E 122°48'5 9.8
2017-Sep-17 08:58N 30°22' E 122°48'4 9.1
2017-Sep-17 08:30N 30°17' E 122°48'5 8.9
2017-Sep-17 07:56N 30°12' E 122°48'8 9.0
2017-Sep-17 07:01N 30°04' E 122°49'5 9.2
2017-Sep-17 06:31N 29°60' E 122°50'010.9
2017-Sep-17 06:30N 29°59' E 122°50'711.4
2017-Sep-17 05:51N 29°52' E 122°52'4210.8
2017-Sep-17 01:58N 29°12' E 122°39'28210.7
2017-Sep-15 23:37N 25°04' E 120°07'211.9
2017-Sep-15 23:26N 25°02' E 120°05'1811.8
2017-Sep-15 21:55N 24°52' E 119°49'512.3
2017-Sep-15 21:30N 24°49' E 119°45'612.4
2017-Sep-15 21:00N 24°45' E 119°40'1612.8
2017-Sep-15 19:44N 24°33' E 119°27'313.2
2017-Sep-15 19:30N 24°31' E 119°24'1213.4
2017-Sep-15 18:38N 24°24' E 119°14'213.4
2017-Sep-15 18:29N 24°23' E 119°12'4812.4
2017-Sep-15 14:36N 23°50' E 118°34'412.4
2017-Sep-15 14:16N 23°47' E 118°31'311.9
2017-Sep-15 14:00N 23°44' E 118°30'612.2
2017-Sep-15 13:31N 23°40' E 118°24'612.2
2017-Sep-15 13:00N 23°37' E 118°19'612.6
2017-Sep-15 12:30N 23°33' E 118°13'713.1
2017-Sep-15 11:59N 23°28' E 118°08'612.9
2017-Sep-15 11:31N 23°24' E 118°03'713.0
2017-Sep-15 11:00N 23°21' E 117°56'713.6
2017-Sep-15 10:30N 23°18' E 117°50'713.3
2017-Sep-15 10:00N 23°15' E 117°43'813.8
2017-Sep-15 09:26N 23°12' E 117°35'613.8
2017-Sep-15 09:00N 23°10' E 117°30'713.5
2017-Sep-15 08:30N 23°07' E 117°23'713.4
2017-Sep-15 08:00N 23°04' E 117°17'713.4
2017-Sep-15 07:30N 23°00' E 117°10'1512.7
2017-Sep-15 06:21N 22°52' E 116°57'412.6
2017-Sep-15 06:00N 22°49' E 116°53'712.2
2017-Sep-15 05:26N 22°47' E 116°46'612.2
2017-Sep-15 04:57N 22°45' E 116°40'13211.0
2017-Sep-14 16:59N 22°34' E 114°17'1 3.0
2017-Sep-14 16:30N 22°34' E 114°16'  

Dump ship's entire track history